Ilyas Efendiyev — 9HES8 — position and weather

sailwx.info

Track history (hours):
 
Tides and Currents Weather Stations Pressure Air Temp Water Temp Dewpoint Dewpoint Depression Visibility Wind Speed Wind Dir Waves Ship Positions

Ilyas Efendiyev

Last reported at 2016-Jun-26 22:08 UTC. Time now 2016-Jun-26 22:50 UTC.
Position N 54°42' E 007°28'.

Length 140 m; draft 4.6 m.

Type: Cargo ship. MMSI: 215901000.

Date/timePositionNaut miles runAvg speedWind from/ knotsBaromVisibWave heightAir tempDewpointWater temp
2016-Jun-26 22:08N 54°42' E 007°28'5 7.9
2016-Jun-26 21:34N 54°38' E 007°28'9 8.7
2016-Jun-26 20:33N 54°29' E 007°29'9 9.1
2016-Jun-26 19:34N 54°20' E 007°30'9 9.0
2016-Jun-26 18:33N 54°11' E 007°31'9 9.3
2016-Jun-26 17:33N 54°02' E 007°38'7 7.4
2016-Jun-26 16:33N 53°55' E 007°38'9 9.1
2016-Jun-26 15:33N 53°53' E 007°23'10 9.7
2016-Jun-26 14:33N 53°51' E 007°07'1010.0
2016-Jun-26 13:33N 53°49' E 006°51'1110.4
2016-Jun-26 12:32N 53°46' E 006°33'1510.6
2016-Jun-26 11:07N 53°42' E 006°09'610.9
2016-Jun-26 10:34N 53°40' E 005°59'1110.9
2016-Jun-26 09:33N 53°36' E 005°42'1110.8
2016-Jun-26 08:34N 53°33' E 005°25'1110.7
2016-Jun-26 07:33N 53°29' E 005°07'85 8.5
2016-Jun-25 21:33N 52°25' E 003°35'5710.6
2016-Jun-25 16:07N 51°42' E 002°32'710.8
2016-Jun-25 15:30N 51°37' E 002°25'1010.1
2016-Jun-25 14:32N 51°29' E 002°16'9 9.4
2016-Jun-25 13:33N 51°21' E 002°08'8 8.4
2016-Jun-25 12:34N 51°14' E 002°03'7 7.2
2016-Jun-25 11:33N 51°09' E 001°53'6 6.3
2016-Jun-25 10:34N 51°06' E 001°45'6 6.3
2016-Jun-25 09:33N 51°01' E 001°39'7 6.6
2016-Jun-25 08:33N 50°56' E 001°32'  
2016-Jun-21 01:31N 39°22' W 009°50'10 9.0
2016-Jun-21 00:25N 39°12' W 009°50'8 8.6
2016-Jun-20 23:33N 39°04' W 009°50'9 8.8
2016-Jun-20 22:33N 38°55' W 009°50'10 8.7
2016-Jun-20 21:27N 38°46' W 009°50'8 8.6
2016-Jun-20 20:33N 38°38' W 009°49'8 8.3
2016-Jun-20 19:33N 38°30' W 009°46'8 7.9
2016-Jun-20 18:34N 38°22' W 009°44'7 7.2
2016-Jun-20 17:34N 38°15' W 009°42'7 7.0
2016-Jun-20 16:33N 38°08' W 009°40'7 7.2
2016-Jun-20 15:33N 38°01' W 009°38'7 7.2
2016-Jun-20 14:33N 37°54' W 009°36'8 7.6
2016-Jun-20 13:33N 37°47' W 009°34'8 7.8
2016-Jun-20 12:33N 37°39' W 009°32'8 7.7
2016-Jun-20 11:33N 37°32' W 009°29'8 7.6
2016-Jun-20 10:33N 37°24' W 009°27'46 7.6
2016-Jun-20 04:27N 36°43' W 009°01'8 8.6
2016-Jun-20 03:34N 36°41' W 008°52'9 8.6
2016-Jun-20 02:33N 36°38' W 008°42'9 9.4
2016-Jun-20 01:34N 36°35' W 008°31'56 9.4
2016-Jun-19 19:33N 36°16' W 007°25'9 9.0
2016-Jun-19 18:33N 36°14' W 007°14'9 9.1
2016-Jun-19 17:33N 36°11' W 007°03'80 8.9
2016-Jun-19 08:33N 36°01' W 005°25'163 9.0
2016-Jun-18 14:33N 36°27' W 002°05'62 8.8
2016-Jun-18 07:29N 36°33' W 000°48'17 8.6
2016-Jun-18 05:32N 36°35' W 000°27'8 8.2
2016-Jun-18 04:30N 36°36' W 000°17'8 8.6
2016-Jun-18 03:33N 36°37' W 000°07'80 8.9
2016-Jun-17 18:33N 36°47' E 001°33'  
Track history (hours):
 
Tides and Currents Weather Stations Pressure Air Temp Water Temp Dewpoint Dewpoint Depression Visibility Wind Speed Wind Dir Waves Ship Positions

Ilyas Efendiyev

Last reported at 2016-Jun-26 22:08 UTC. Time now 2016-Jun-26 22:50 UTC.
Position N 54°42' E 007°28'.

Length 140 m; draft 4.6 m.

Type: Cargo ship. MMSI: 215901000.

Date/timePositionNaut miles runAvg speedWind from/ knotsBaromVisibWave heightAir tempDewpointWater temp
2016-Jun-26 22:08N 54°42' E 007°28'5 7.9
2016-Jun-26 21:34N 54°38' E 007°28'9 8.7
2016-Jun-26 20:33N 54°29' E 007°29'9 9.1
2016-Jun-26 19:34N 54°20' E 007°30'9 9.0
2016-Jun-26 18:33N 54°11' E 007°31'9 9.3
2016-Jun-26 17:33N 54°02' E 007°38'7 7.4
2016-Jun-26 16:33N 53°55' E 007°38'9 9.1
2016-Jun-26 15:33N 53°53' E 007°23'10 9.7
2016-Jun-26 14:33N 53°51' E 007°07'1010.0
2016-Jun-26 13:33N 53°49' E 006°51'1110.4
2016-Jun-26 12:32N 53°46' E 006°33'1510.6
2016-Jun-26 11:07N 53°42' E 006°09'610.9
2016-Jun-26 10:34N 53°40' E 005°59'1110.9
2016-Jun-26 09:33N 53°36' E 005°42'1110.8
2016-Jun-26 08:34N 53°33' E 005°25'1110.7
2016-Jun-26 07:33N 53°29' E 005°07'85 8.5
2016-Jun-25 21:33N 52°25' E 003°35'5710.6
2016-Jun-25 16:07N 51°42' E 002°32'710.8
2016-Jun-25 15:30N 51°37' E 002°25'1010.1
2016-Jun-25 14:32N 51°29' E 002°16'9 9.4
2016-Jun-25 13:33N 51°21' E 002°08'8 8.4
2016-Jun-25 12:34N 51°14' E 002°03'7 7.2
2016-Jun-25 11:33N 51°09' E 001°53'6 6.3
2016-Jun-25 10:34N 51°06' E 001°45'6 6.3
2016-Jun-25 09:33N 51°01' E 001°39'7 6.6
2016-Jun-25 08:33N 50°56' E 001°32'  
2016-Jun-21 01:31N 39°22' W 009°50'10 9.0
2016-Jun-21 00:25N 39°12' W 009°50'8 8.6
2016-Jun-20 23:33N 39°04' W 009°50'9 8.8
2016-Jun-20 22:33N 38°55' W 009°50'10 8.7
2016-Jun-20 21:27N 38°46' W 009°50'8 8.6
2016-Jun-20 20:33N 38°38' W 009°49'8 8.3
2016-Jun-20 19:33N 38°30' W 009°46'8 7.9
2016-Jun-20 18:34N 38°22' W 009°44'7 7.2
2016-Jun-20 17:34N 38°15' W 009°42'7 7.0
2016-Jun-20 16:33N 38°08' W 009°40'7 7.2
2016-Jun-20 15:33N 38°01' W 009°38'7 7.2
2016-Jun-20 14:33N 37°54' W 009°36'8 7.6
2016-Jun-20 13:33N 37°47' W 009°34'8 7.8
2016-Jun-20 12:33N 37°39' W 009°32'8 7.7
2016-Jun-20 11:33N 37°32' W 009°29'8 7.6
2016-Jun-20 10:33N 37°24' W 009°27'46 7.6
2016-Jun-20 04:27N 36°43' W 009°01'8 8.6
2016-Jun-20 03:34N 36°41' W 008°52'9 8.6
2016-Jun-20 02:33N 36°38' W 008°42'9 9.4
2016-Jun-20 01:34N 36°35' W 008°31'56 9.4
2016-Jun-19 19:33N 36°16' W 007°25'9 9.0
2016-Jun-19 18:33N 36°14' W 007°14'9 9.1
2016-Jun-19 17:33N 36°11' W 007°03'80 8.9
2016-Jun-19 08:33N 36°01' W 005°25'163 9.0
2016-Jun-18 14:33N 36°27' W 002°05'62 8.8
2016-Jun-18 07:29N 36°33' W 000°48'17 8.6
2016-Jun-18 05:32N 36°35' W 000°27'8 8.2
2016-Jun-18 04:30N 36°36' W 000°17'8 8.6
2016-Jun-18 03:33N 36°37' W 000°07'80 8.9
2016-Jun-17 18:33N 36°47' E 001°33'  

Dump ship's entire track history